Time;durP1;ratioP1;P1;durP2;ratioP2;P2;SDS_P1;SDS_P2;PMS_P1;PMS_P2;Temp;Humidity;BMP_temperature;BMP_pressure;BME280_temperature;BME280_humidity;BME280_pressure;Samples;Min_cycle;Max_cycle;Signal;HPM_P1;HPM_P2
2022/09/24 00:01:12;;;;;;;14.27;8.15;;;;;;;9.56;nan;95615.16;5034493;28;20753;-78
2022/09/24 00:03:38;;;;;;;17.50;8.57;;;;;;;9.18;nan;95550.88;5033774;28;20119;-77
2022/09/24 00:06:05;;;;;;;11.50;8.23;;;;;;;8.77;nan;95490.84;5030600;28;20489;-75
2022/09/24 00:08:31;;;;;;;16.02;8.43;;;;;;;9.50;nan;95605.59;5020400;28;20835;-77
2022/09/24 00:11:00;;;;;;;14.82;8.30;;;;;;;9.49;nan;95604.81;5032992;28;20051;-77
2022/09/24 00:13:26;;;;;;;12.32;8.50;;;;;;;8.85;nan;95517.59;5033996;28;20114;-76
2022/09/24 00:15:52;;;;;;;10.55;7.55;;;;;;;9.40;nan;95613.47;5024533;28;20471;-77
2022/09/24 00:18:20;;;;;;;13.88;7.50;;;;;;;9.45;nan;95602.94;5014498;28;20041;-77
2022/09/24 00:20:46;;;;;;;16.42;7.88;;;;;;;9.46;nan;95605.31;5008711;28;20037;-77
2022/09/24 00:23:12;;;;;;;12.88;7.10;;;;;;;9.45;nan;95605.59;5014207;28;20558;-77
2022/09/24 00:28:30;;;;;;;11.55;7.55;;;;;;;9.37;nan;95603.41;5014725;28;20128;-77
2022/09/24 00:30:58;;;;;;;19.23;8.25;;;;;;;8.74;nan;95512.50;5012854;28;20033;-77
2022/09/24 00:33:27;;;;;;;13.23;7.28;;;;;;;8.84;nan;95571.56;5014516;28;20037;-77
2022/09/24 00:35:56;;;;;;;12.93;7.57;;;;;;;9.17;nan;95609.34;5011539;28;20075;-77
2022/09/24 00:38:23;;;;;;;14.38;7.85;;;;;;;9.12;nan;95599.53;5014572;28;20025;-77
2022/09/24 00:40:48;;;;;;;17.58;8.85;;;;;;;8.74;nan;95539.75;5013154;28;20802;-77
2022/09/24 00:43:41;;;;;;;16.95;7.70;;;;;;;9.17;nan;95591.63;5012865;28;20045;-77
2022/09/24 00:46:06;;;;;;;16.15;8.43;;;;;;;9.13;nan;95601.13;5010818;28;20531;-77
2022/09/24 00:48:33;;;;;;;14.05;7.95;;;;;;;8.51;nan;95532.13;5014323;28;20044;-77
2022/09/24 00:50:59;;;;;;;14.00;8.55;;;;;;;9.01;nan;95605.78;5013612;28;20049;-77
2022/09/24 00:53:30;;;;;;;15.05;8.38;;;;;;;8.91;nan;95584.56;5014213;28;20090;-77
2022/09/24 00:55:57;;;;;;;12.93;8.18;;;;;;;8.88;nan;95583.22;5013847;28;20086;-77
2022/09/24 00:58:23;;;;;;;17.40;9.02;;;;;;;8.54;nan;95531.66;5015006;28;20094;-77
2022/09/24 01:00:52;;;;;;;18.02;8.38;;;;;;;8.52;nan;95523.16;5013926;28;20468;-77
2022/09/24 01:03:22;;;;;;;15.93;8.00;;;;;;;8.85;nan;95588.19;5012992;28;20033;-77
2022/09/24 01:05:49;;;;;;;19.75;8.63;;;;;;;8.69;nan;95557.41;5013997;28;20037;-77
2022/09/24 01:08:17;;;;;;;13.60;8.85;;;;;;;8.95;nan;95587.50;5014780;28;20550;-77
2022/09/24 01:11:04;;;;;;;14.13;8.00;;;;;;;8.90;nan;95589.06;5012250;28;20309;-77
2022/09/24 01:14:09;;;;;;;17.67;9.35;;;;;;;8.93;nan;95590.38;5014521;28;20077;-77
2022/09/24 01:16:40;;;;;;;19.42;8.95;;;;;;;8.87;nan;95591.41;5012884;28;20480;-77
2022/09/24 01:19:24;;;;;;;15.50;8.18;;;;;;;8.83;nan;95583.19;5014074;28;20130;-77
2022/09/24 01:22:15;;;;;;;16.08;7.65;;;;;;;8.61;nan;95592.25;5033687;28;20138;-77
2022/09/24 01:25:00;;;;;;;17.40;9.13;;;;;;;8.76;nan;95595.81;5018509;28;20111;-77
2022/09/24 01:28:08;;;;;;;18.02;8.32;;;;;;;8.74;nan;95589.19;5032474;28;20081;-77
2022/09/24 01:30:37;;;;;;;16.55;9.27;;;;;;;8.63;nan;95563.69;5018681;28;20051;-76
2022/09/24 01:33:15;;;;;;;13.95;7.97;;;;;;;8.64;nan;95574.00;5028946;28;20064;-77
2022/09/24 01:35:43;;;;;;;20.67;8.68;;;;;;;8.68;nan;95588.34;5027305;28;20618;-77
2022/09/24 01:38:25;;;;;;;14.15;8.52;;;;;;;8.68;nan;95583.06;5028917;28;20416;-77
2022/09/24 01:40:52;;;;;;;14.38;8.75;;;;;;;8.35;nan;95544.41;5019864;28;20056;-77
2022/09/24 01:43:22;;;;;;;17.05;8.40;;;;;;;8.66;nan;95587.78;5034828;28;20422;-77
2022/09/24 01:45:48;;;;;;;12.18;8.10;;;;;;;8.21;nan;95526.53;5021551;28;20041;-76
2022/09/24 01:48:14;;;;;;;17.38;8.40;;;;;;;8.58;nan;95590.88;5021199;28;20034;-77
2022/09/24 01:51:07;;;;;;;15.07;9.10;;;;;;;7.76;nan;95474.88;5022002;28;20382;-78
2022/09/24 01:54:02;;;;;;;14.05;7.97;;;;;;;8.54;nan;95594.28;5034318;28;20507;-76
2022/09/24 01:56:46;;;;;;;14.77;7.97;;;;;;;7.90;nan;95496.38;5025426;28;20129;-76
2022/09/24 01:59:31;;;;;;;18.10;7.97;;;;;;;8.55;nan;95590.56;5038355;28;20037;-76
2022/09/24 02:02:06;;;;;;;14.07;8.38;;;;;;;8.29;nan;95558.59;5023042;28;20894;-77
2022/09/24 02:04:39;;;;;;;17.45;9.02;;;;;;;8.20;nan;95562.72;5034763;28;20037;-77
2022/09/24 02:07:44;;;;;;;16.25;8.27;;;;;;;7.65;nan;95473.16;5037058;28;20475;-77
2022/09/24 02:10:19;;;;;;;12.57;8.48;;;;;;;7.79;nan;95515.78;5034982;28;20041;-77
2022/09/24 02:12:51;;;;;;;15.60;8.88;;;;;;;8.47;nan;95613.78;5036351;28;20037;-77
2022/09/24 02:15:31;;;;;;;14.63;8.20;;;;;;;8.33;nan;95588.78;5022842;28;20564;-77
2022/09/24 02:18:02;;;;;;;19.42;9.02;;;;;;;7.85;nan;95523.56;5020287;28;20139;-77
2022/09/24 02:20:29;;;;;;;16.65;8.88;;;;;;;8.07;nan;95540.16;5036623;28;20464;-77
2022/09/24 02:22:56;;;;;;;16.52;9.15;;;;;;;7.85;nan;95523.56;5036341;28;20159;-77
2022/09/24 02:25:33;;;;;;;26.50;9.75;;;;;;;8.36;nan;95617.38;5034794;28;20080;-76
2022/09/24 02:27:59;;;;;;;17.48;9.73;;;;;;;7.53;nan;95496.25;5036273;28;20036;-76
2022/09/24 02:30:25;;;;;;;18.17;10.27;;;;;;;7.43;nan;95488.19;5028259;28;20104;-77
2022/09/24 02:32:53;;;;;;;18.67;9.68;;;;;;;8.16;nan;95592.56;5001733;28;20374;-77
2022/09/24 02:35:19;;;;;;;16.58;10.43;;;;;;;8.25;nan;95618.25;5018742;28;20177;-76
2022/09/24 02:37:44;;;;;;;24.85;9.45;;;;;;;8.35;nan;95639.56;5032760;28;20033;-77
2022/09/24 02:40:13;;;;;;;17.52;10.30;;;;;;;8.32;nan;95639.25;5026209;28;20031;-76
2022/09/24 02:42:41;;;;;;;21.45;10.23;;;;;;;8.31;nan;95640.31;5024638;28;20041;-77
2022/09/24 02:45:07;;;;;;;17.52;10.50;;;;;;;7.91;nan;95571.94;5026406;28;20514;-77
2022/09/24 02:47:33;;;;;;;20.92;10.52;;;;;;;8.30;nan;95642.13;5034406;28;20392;-77
2022/09/24 02:49:59;;;;;;;15.75;9.55;;;;;;;8.09;nan;95617.28;5024505;28;20029;-77
2022/09/24 02:52:24;;;;;;;18.70;9.70;;;;;;;8.00;nan;95605.59;5033607;28;20028;-77
2022/09/24 02:54:50;;;;;;;17.17;9.77;;;;;;;8.24;nan;95643.09;5026244;28;20132;-77
2022/09/24 02:57:17;;;;;;;18.52;9.48;;;;;;;7.74;nan;95574.63;5036242;28;20021;-76
2022/09/24 02:59:43;;;;;;;17.30;10.20;;;;;;;8.22;nan;95647.84;5030449;28;20112;-76
2022/09/24 03:02:08;;;;;;;15.43;9.82;;;;;;;7.63;nan;95565.78;5035088;28;20118;-77
2022/09/24 03:04:33;;;;;;;15.20;9.63;;;;;;;8.04;nan;95625.16;5034670;28;20037;-77
2022/09/24 03:06:59;;;;;;;17.65;10.15;;;;;;;8.07;nan;95639.75;5035328;28;20578;-76
2022/09/24 03:09:24;;;;;;;18.65;9.90;;;;;;;7.29;nan;95508.88;5034203;28;20341;-77
2022/09/24 03:11:50;;;;;;;21.75;10.25;;;;;;;8.11;nan;95646.91;5036010;28;20075;-77
2022/09/24 03:14:15;;;;;;;16.05;10.10;;;;;;;7.86;nan;95603.56;5021811;28;20037;-77
2022/09/24 03:16:41;;;;;;;22.40;10.07;;;;;;;8.13;nan;95646.66;5019643;28;20045;-77
2022/09/24 03:19:06;;;;;;;19.98;10.10;;;;;;;7.91;nan;95622.91;5016811;28;20181;-77
2022/09/24 03:21:32;;;;;;;18.70;10.82;;;;;;;7.83;nan;95615.41;5019509;28;20033;-77
2022/09/24 03:23:59;;;;;;;20.90;12.05;;;;;;;7.95;nan;95631.13;5034396;28;20083;-77
2022/09/24 03:26:24;;;;;;;18.83;11.25;;;;;;;7.63;nan;95586.88;5034963;28;20033;-76
2022/09/24 03:28:50;;;;;;;25.15;11.38;;;;;;;7.42;nan;95571.84;5017430;28;20423;-76
2022/09/24 03:31:15;;;;;;;21.38;11.52;;;;;;;7.35;nan;95656.44;5016014;28;20033;-77
2022/09/24 03:33:46;;;;;;;16.85;10.70;;;;;;;7.17;nan;95571.50;5019666;28;20113;-77
2022/09/24 03:36:19;;;;;;;18.42;11.02;;;;;;;7.74;nan;95661.75;5035411;28;20033;-78
2022/09/24 03:38:47;;;;;;;17.75;10.52;;;;;;;7.68;nan;95668.81;5036905;28;20626;-78
2022/09/24 03:41:13;;;;;;;18.40;11.02;;;;;;;7.24;nan;95606.44;5035598;28;20571;-78
2022/09/24 03:43:39;;;;;;;22.15;11.55;;;;;;;7.21;nan;95596.34;5035926;28;20040;-78
2022/09/24 03:46:05;;;;;;;23.30;11.38;;;;;;;7.48;nan;95636.03;5021461;28;20099;-78
2022/09/24 03:48:33;;;;;;;25.85;12.23;;;;;;;7.70;nan;95664.06;5016053;28;20072;-78
2022/09/24 03:51:03;;;;;;;17.83;10.32;;;;;;;7.15;nan;95581.50;5015012;28;20045;-78
2022/09/24 03:53:28;;;;;;;23.25;10.70;;;;;;;7.11;nan;95575.88;5017271;28;20514;-78
2022/09/24 03:55:55;;;;;;;31.60;12.13;;;;;;;7.10;nan;95589.31;5017010;28;20041;-78
2022/09/24 03:58:21;;;;;;;28.02;11.48;;;;;;;7.64;nan;95659.75;5017156;28;20435;-78
2022/09/24 04:00:48;;;;;;;23.80;12.88;;;;;;;7.69;nan;95672.25;5032958;28;20044;-78
2022/09/24 04:03:13;;;;;;;22.88;12.45;;;;;;;7.71;nan;95678.06;5033360;28;20578;-78
2022/09/24 04:05:39;;;;;;;24.33;12.23;;;;;;;7.47;nan;95659.00;5027989;28;20045;-78
2022/09/24 04:08:05;;;;;;;24.98;11.55;;;;;;;7.49;nan;95640.28;5017194;28;20029;-78
2022/09/24 04:10:33;;;;;;;19.45;11.30;;;;;;;7.50;nan;95650.59;5024155;28;20041;-77
2022/09/24 04:12:58;;;;;;;25.67;11.35;;;;;;;7.50;nan;95658.50;5025921;28;20040;-77
2022/09/24 04:15:24;;;;;;;19.42;11.65;;;;;;;7.44;nan;95645.50;5015757;28;20452;-77
2022/09/24 04:17:54;;;;;;;24.20;12.75;;;;;;;7.57;nan;95667.06;5027300;28;20423;-77
2022/09/24 04:20:22;;;;;;;19.95;11.25;;;;;;;7.33;nan;95633.97;5019377;28;20061;-77
2022/09/24 04:22:49;;;;;;;23.25;12.38;;;;;;;6.68;nan;95534.38;5015891;28;20648;-77
2022/09/24 04:25:14;;;;;;;17.63;11.25;;;;;;;7.49;nan;95674.59;5030254;28;20199;-77
2022/09/24 04:27:40;;;;;;;23.35;12.15;;;;;;;7.55;nan;95690.25;5014633;28;20072;-77
2022/09/24 04:30:06;;;;;;;19.67;11.73;;;;;;;7.09;nan;95614.91;5034262;28;20033;-77
2022/09/24 04:32:32;;;;;;;22.20;11.77;;;;;;;6.34;nan;95499.31;5033502;28;20776;-77
2022/09/24 04:34:57;;;;;;;25.42;12.05;;;;;;;7.09;nan;95636.00;5032430;28;20531;-77
2022/09/24 04:37:23;;;;;;;23.05;12.18;;;;;;;6.96;nan;95610.75;5033755;28;20045;-77
2022/09/24 04:39:48;;;;;;;24.55;12.45;;;;;;;7.03;nan;95638.78;5032865;28;20493;-78
2022/09/24 04:42:17;;;;;;;16.98;12.15;;;;;;;6.88;nan;95618.25;5032724;28;20033;-77
2022/09/24 04:44:46;;;;;;;26.85;13.30;;;;;;;7.49;nan;95700.97;5033445;28;20041;-78
2022/09/24 04:47:15;;;;;;;28.65;12.52;;;;;;;7.22;nan;95646.22;5032522;28;20040;-76
2022/09/24 04:49:44;;;;;;;21.45;12.32;;;;;;;7.28;nan;95662.94;5032712;28;20041;-77
2022/09/24 04:52:13;;;;;;;24.75;13.25;;;;;;;7.58;nan;95699.53;5032992;28;20063;-77
2022/09/24 04:54:43;;;;;;;20.58;13.18;;;;;;;6.78;nan;95568.00;5030865;28;20041;-77
2022/09/24 04:57:09;;;;;;;26.65;12.50;;;;;;;6.72;nan;95563.69;5029832;28;20521;-77
2022/09/24 04:59:35;;;;;;;23.40;12.93;;;;;;;7.62;nan;95698.81;5033014;28;20523;-77
2022/09/24 05:02:01;;;;;;;21.38;13.13;;;;;;;7.17;nan;95646.13;5033418;28;20036;-77
2022/09/24 05:04:26;;;;;;;22.95;13.32;;;;;;;7.55;nan;95702.66;5033771;28;20119;-77
2022/09/24 05:06:51;;;;;;;23.83;14.90;;;;;;;7.06;nan;95648.88;5032372;28;20046;-77
2022/09/24 05:09:17;;;;;;;25.67;14.18;;;;;;;6.94;nan;95662.91;5033889;28;20041;-77
2022/09/24 05:11:42;;;;;;;21.50;13.30;;;;;;;6.94;nan;95625.22;5037113;28;20033;-77
2022/09/24 05:14:07;;;;;;;24.83;14.30;;;;;;;7.58;nan;95702.97;5038585;28;20037;-76
2022/09/24 05:16:33;;;;;;;30.45;14.23;;;;;;;7.66;nan;95701.75;5030550;28;20131;-77
2022/09/24 05:18:58;;;;;;;33.67;15.05;;;;;;;7.68;nan;95692.56;5027168;28;20091;-75
2022/09/24 05:21:24;;;;;;;29.45;14.13;;;;;;;7.06;nan;95591.66;5027496;28;20823;-77
2022/09/24 05:23:49;;;;;;;33.22;14.82;;;;;;;7.83;nan;95704.38;5030168;28;20385;-77
2022/09/24 05:28:58;;;;;;;36.15;14.10;;;;;;;7.80;nan;95689.03;5035380;28;20044;-77
2022/09/24 05:31:24;;;;;;;29.02;13.40;;;;;;;7.99;nan;95706.19;5020870;28;20033;-77
2022/09/24 05:33:50;;;;;;;28.42;14.32;;;;;;;7.40;nan;95624.03;5037270;28;20036;-77
2022/09/24 05:36:15;;;;;;;26.33;14.13;;;;;;;7.53;nan;95644.03;5018405;28;20068;-77
2022/09/24 05:38:40;;;;;;;24.55;12.80;;;;;;;7.55;nan;95650.66;5037333;28;20542;-77
2022/09/24 05:41:06;;;;;;;25.67;13.90;;;;;;;7.10;nan;95562.94;5034708;28;20037;-77
2022/09/24 05:43:31;;;;;;;25.92;13.10;;;;;;;7.94;nan;95698.19;5023571;28;20153;-77
2022/09/24 05:45:57;;;;;;;33.38;12.73;;;;;;;8.01;nan;95706.75;5037653;28;20037;-77
2022/09/24 05:48:24;;;;;;;24.30;12.55;;;;;;;8.23;nan;95717.34;5035334;28;20218;-77
2022/09/24 05:50:54;;;;;;;18.30;11.57;;;;;;;8.24;nan;95726.88;5035054;28;20033;-77
2022/09/24 05:53:21;;;;;;;24.50;12.35;;;;;;;8.26;nan;95725.56;5037234;28;20523;-75
2022/09/24 05:55:46;;;;;;;21.92;12.57;;;;;;;8.32;nan;95726.44;5025616;28;20037;-77
2022/09/24 05:58:12;;;;;;;25.48;12.10;;;;;;;8.22;nan;95698.03;5031656;28;20040;-77
2022/09/24 06:00:37;;;;;;;20.55;12.70;;;;;;;8.41;nan;95730.25;5035764;28;20415;-76
2022/09/24 06:03:13;;;;;;;23.00;11.60;;;;;;;8.39;nan;95719.94;5020090;28;20536;-76
2022/09/24 06:05:43;;;;;;;21.45;13.13;;;;;;;8.11;nan;95669.88;5035350;28;20206;-76
2022/09/24 06:08:09;;;;;;;24.70;13.98;;;;;;;8.31;nan;95696.59;5002806;28;20059;-77
2022/09/24 06:10:35;;;;;;;23.00;11.35;;;;;;;8.58;nan;95727.56;5020097;28;20135;-77
2022/09/24 06:13:00;;;;;;;19.27;12.35;;;;;;;8.64;nan;95737.13;5031250;28;20457;-77
2022/09/24 06:15:26;;;;;;;22.15;12.52;;;;;;;8.43;nan;95728.97;5020759;28;20059;-77
2022/09/24 06:17:53;;;;;;;29.52;15.75;;;;;;;8.32;nan;95705.31;5023553;28;20577;-77
2022/09/24 06:20:19;;;;;;;24.77;14.80;;;;;;;7.88;nan;95626.03;5033416;28;20061;-77
2022/09/24 06:22:44;;;;;;;21.88;14.38;;;;;;;8.54;nan;95724.63;5026020;28;20526;-77
2022/09/24 06:25:09;;;;;;;28.42;15.80;;;;;;;8.42;nan;95700.16;5024782;28;20036;-77
2022/09/24 06:27:35;;;;;;;25.80;16.23;;;;;;;7.92;nan;95639.56;5025703;28;20033;-77
2022/09/24 06:30:00;;;;;;;27.83;16.02;;;;;;;8.39;nan;95740.31;5026538;28;20145;-76
2022/09/24 06:32:26;;;;;;;28.65;16.10;;;;;;;8.60;nan;95741.34;5036834;28;20029;-77
2022/09/24 06:34:51;;;;;;;30.55;15.13;;;;;;;8.24;nan;95672.16;5036493;28;20028;-77
2022/09/24 06:37:16;;;;;;;30.77;16.58;;;;;;;8.44;nan;95698.88;5036660;28;20466;-76
2022/09/24 06:39:42;;;;;;;32.70;14.95;;;;;;;8.26;nan;95669.28;5036066;28;20407;-76
2022/09/24 06:42:07;;;;;;;28.67;13.25;;;;;;;8.58;nan;95736.28;5035694;28;20037;-78
2022/09/24 06:44:34;;;;;;;24.02;13.80;;;;;;;8.87;nan;95744.81;5034996;28;20407;-77
2022/09/24 06:47:00;;;;;;;26.55;14.05;;;;;;;8.57;nan;95712.75;5034822;28;20029;-77
2022/09/24 06:49:26;;;;;;;23.48;11.60;;;;;;;8.35;nan;95670.47;5036005;28;20040;-77
2022/09/24 06:51:54;;;;;;;21.52;11.82;;;;;;;8.44;nan;95690.13;5035850;28;20513;-77
2022/09/24 06:54:21;;;;;;;21.60;11.85;;;;;;;8.16;nan;95646.19;5033222;28;20036;-77
2022/09/24 06:56:47;;;;;;;21.67;12.82;;;;;;;8.13;nan;95614.97;5020890;28;20032;-77
2022/09/24 06:59:12;;;;;;;21.90;11.20;;;;;;;8.66;nan;95685.63;5037798;28;20047;-77
2022/09/24 07:01:37;;;;;;;20.83;10.32;;;;;;;8.07;nan;95589.53;5037209;28;20038;-77
2022/09/24 07:04:03;;;;;;;24.52;12.30;;;;;;;9.14;nan;95750.91;5036294;28;20044;-77
2022/09/24 07:07:28;;;;;;;15.93;10.02;;;;;;;9.10;nan;95725.19;5035744;28;20459;-77
2022/09/24 07:09:14;;;;;;;18.33;9.63;;;;;;;8.43;nan;95615.34;5035490;28;20535;-77
2022/09/24 07:11:40;;;;;;;22.40;9.82;;;;;;;9.24;nan;95723.72;5035499;28;20397;-77
2022/09/24 07:14:06;;;;;;;47.83;9.80;;;;;;;9.29;nan;95740.47;5034522;28;20028;-77
2022/09/24 07:16:31;;;;;;;16.42;9.45;;;;;;;8.88;nan;95669.69;5033687;28;20043;-77
2022/09/24 07:18:57;;;;;;;28.15;10.57;;;;;;;8.96;nan;95666.59;5032642;28;20057;-77
2022/09/24 07:21:22;;;;;;;16.88;8.80;;;;;;;8.84;nan;95661.47;5030231;28;20042;-76
2022/09/24 07:23:47;;;;;;;16.45;8.98;;;;;;;9.44;nan;95742.44;5034836;28;20157;-76
2022/09/24 07:26:13;;;;;;;19.25;8.90;;;;;;;8.84;nan;95642.16;5031615;28;20475;-77
2022/09/24 07:28:38;;;;;;;13.45;9.50;;;;;;;8.89;nan;95634.28;5035209;28;20345;-78
2022/09/24 07:31:04;;;;;;;18.15;10.13;;;;;;;8.52;nan;95558.31;5033016;28;20036;-77
2022/09/24 07:33:32;;;;;;;15.52;9.13;;;;;;;9.06;nan;95669.34;5032881;28;20036;-77
2022/09/24 07:35:57;;;;;;;21.23;9.35;;;;;;;9.51;nan;95734.28;5031699;28;20060;-77
2022/09/24 07:38:23;;;;;;;17.13;8.80;;;;;;;9.54;nan;95723.19;5031274;28;20495;-76
2022/09/24 07:40:48;;;;;;;19.80;8.88;;;;;;;9.48;nan;95695.06;5032434;28;20037;-77
2022/09/24 07:43:14;;;;;;;17.20;10.00;;;;;;;9.45;nan;95693.75;5034793;28;20033;-77
2022/09/24 07:45:40;;;;;;;21.42;9.52;;;;;;;9.43;nan;95681.81;5033524;28;20513;-77
2022/09/24 07:48:05;;;;;;;22.63;10.50;;;;;;;9.42;nan;95680.22;5029705;28;20136;-76
2022/09/24 07:50:38;;;;;;;19.55;10.10;;;;;;;9.90;nan;95722.41;5034657;28;20047;-76
2022/09/24 07:53:05;;;;;;;13.63;8.13;;;;;;;10.05;nan;95719.03;5029767;28;20033;-77
2022/09/24 07:55:30;;;;;;;13.82;9.25;;;;;;;9.79;nan;95675.69;5034707;28;20045;-77
2022/09/24 07:57:56;;;;;;;12.30;7.72;;;;;;;9.35;nan;95597.56;5031978;28;20060;-77
2022/09/24 08:00:23;;;;;;;13.82;8.57;;;;;;;10.23;nan;95731.06;5034747;28;20104;-77
2022/09/24 08:02:50;;;;;;;16.00;9.52;;;;;;;10.25;nan;95726.31;5028911;28;20494;-77
2022/09/24 08:05:16;;;;;;;19.27;8.63;;;;;;;9.76;nan;95668.28;5032736;28;20037;-77
2022/09/24 08:07:49;;;;;;;14.27;8.43;;;;;;;10.16;nan;95725.97;5028527;28;20037;-77
2022/09/24 08:10:14;;;;;;;17.75;8.98;;;;;;;10.01;nan;95697.53;5032466;28;20497;-77
2022/09/24 08:12:41;;;;;;;14.05;8.77;;;;;;;10.23;nan;95723.94;5034776;28;20174;-77
2022/09/24 08:15:07;;;;;;;14.85;8.98;;;;;;;9.81;nan;95649.75;5030358;28;20040;-77
2022/09/24 08:17:32;;;;;;;16.10;9.23;;;;;;;9.95;nan;95687.97;5034294;28;20071;-77
2022/09/24 08:19:58;;;;;;;16.02;9.13;;;;;;;9.73;nan;95623.75;5024147;28;20049;-77
2022/09/24 08:22:23;;;;;;;17.92;9.45;;;;;;;10.03;nan;95676.91;5030945;28;20032;-77
2022/09/24 08:24:49;;;;;;;12.35;8.68;;;;;;;10.41;nan;95723.50;5034203;28;20041;-76
2022/09/24 08:27:16;;;;;;;16.65;9.27;;;;;;;10.09;nan;95656.50;5032212;28;20035;-77
2022/09/24 08:29:42;;;;;;;18.95;9.00;;;;;;;10.54;nan;95700.19;5030607;28;20344;-77
2022/09/24 08:32:07;;;;;;;14.88;9.07;;;;;;;10.38;nan;95660.38;5033122;28;20484;-76
2022/09/24 08:34:37;;;;;;;19.50;9.63;;;;;;;10.54;nan;95669.16;5028705;28;20304;-77
2022/09/24 08:37:04;;;;;;;16.15;9.38;;;;;;;10.79;nan;95717.00;4997597;28;20124;-77
2022/09/24 08:39:31;;;;;;;13.80;8.85;;;;;;;10.82;nan;95715.69;5035073;28;20037;-77
2022/09/24 08:42:02;;;;;;;16.45;10.13;;;;;;;10.40;nan;95641.56;5029029;28;20200;-77
2022/09/24 08:47:50;;;;;;;16.83;9.80;;;;;;;10.85;nan;95712.50;5034952;28;20091;-77
2022/09/24 08:50:20;;;;;;;18.30;10.52;;;;;;;10.90;nan;95709.88;5034116;28;20143;-77
2022/09/24 08:52:49;;;;;;;19.55;10.45;;;;;;;11.05;nan;95706.44;5027558;28;20522;-77
2022/09/24 08:55:21;;;;;;;14.68;9.15;;;;;;;10.99;nan;95692.34;5033066;28;20500;-77
2022/09/24 08:58:11;;;;;;;19.80;10.52;;;;;;;11.18;nan;95701.41;5028309;28;20522;-77
2022/09/24 09:00:47;;;;;;;21.80;11.25;;;;;;;10.89;nan;95662.38;5028061;28;20112;-78
2022/09/24 09:03:31;;;;;;;22.23;11.55;;;;;;;11.15;nan;95699.28;5028351;28;20076;-78
2022/09/24 09:06:39;;;;;;;23.10;10.73;;;;;;;11.10;nan;95661.31;5023358;28;20037;-77
2022/09/24 09:09:22;;;;;;;18.20;10.57;;;;;;;11.45;nan;95679.09;5025927;28;20423;-77
2022/09/24 09:11:50;;;;;;;16.13;10.23;;;;;;;11.51;nan;95670.09;5016367;28;20483;-80
2022/09/24 09:14:41;;;;;;;18.92;10.95;;;;;;;11.00;nan;95603.72;5029805;28;20029;-77
2022/09/24 09:17:41;;;;;;;17.83;10.20;;;;;;;11.60;nan;95681.75;5033317;28;20120;-77
2022/09/24 09:20:13;;;;;;;16.98;10.45;;;;;;;11.69;nan;95674.03;5028784;28;20524;-77
2022/09/24 09:22:44;;;;;;;14.55;8.35;;;;;;;11.79;nan;95682.03;5013636;28;20333;-77
2022/09/24 09:25:24;;;;;;;15.18;9.52;;;;;;;11.32;nan;95576.09;5033191;28;20104;-78
2022/09/24 09:28:14;;;;;;;20.98;9.45;;;;;;;12.01;nan;95669.22;5033813;28;20041;-77
2022/09/24 09:31:05;;;;;;;17.00;9.77;;;;;;;12.12;nan;95667.34;5024208;28;20314;-76
2022/09/24 09:33:53;;;;;;;17.00;11.25;;;;;;;12.23;nan;95663.56;5017277;28;20037;-77
2022/09/24 09:36:56;;;;;;;16.00;10.25;;;;;;;12.29;nan;95663.28;5031022;28;20033;-77
2022/09/24 09:39:52;;;;;;;21.80;11.48;;;;;;;11.70;nan;95578.13;5032261;28;20033;-77
2022/09/24 09:42:31;;;;;;;15.88;9.57;;;;;;;12.12;nan;95628.28;5031664;28;20098;-77
2022/09/24 09:45:00;;;;;;;17.05;9.88;;;;;;;12.24;nan;95619.97;5027408;28;20040;-77
2022/09/24 09:47:25;;;;;;;17.60;9.60;;;;;;;12.54;nan;95645.63;5028953;28;20036;-77
2022/09/24 09:49:56;;;;;;;17.83;11.07;;;;;;;12.44;nan;95622.53;5031087;28;20033;-78
2022/09/24 09:52:25;;;;;;;14.60;8.95;;;;;;;12.71;nan;95646.06;5033012;28;20048;-77
2022/09/24 09:54:51;;;;;;;13.27;8.63;;;;;;;12.71;nan;95572.34;5026576;28;20506;-77
2022/09/24 09:57:23;;;;;;;18.52;9.73;;;;;;;13.72;nan;95583.22;5026977;28;20029;-77
2022/09/24 09:59:48;;;;;;;;;;;;;;;15.07;nan;95625.25;5036833;28;20043;-78
2022/09/24 10:02:30;;;;;;;14.95;7.07;;;;;;;16.25;nan;95541.06;5030010;28;19925;-78
2022/09/24 10:05:00;;;;;;;12.68;6.97;;;;;;;17.95;nan;95600.81;5028513;28;20110;-78
2022/09/24 10:07:26;;;;;;;11.02;6.43;;;;;;;19.04;nan;95586.38;5029440;28;20054;-78
2022/09/24 10:10:01;;;;;;;12.30;6.60;;;;;;;19.98;nan;95574.66;5031264;28;20558;-78
2022/09/24 10:12:28;;;;;;;16.10;5.25;;;;;;;19.83;nan;95564.44;5037568;28;20154;-78
2022/09/24 10:15:01;;;;;;;14.07;5.55;;;;;;;21.01;nan;95605.59;5036159;28;20143;-78
2022/09/24 10:17:30;;;;;;;11.90;5.50;;;;;;;21.68;nan;95541.69;5034989;28;20032;-78
2022/09/24 10:19:58;;;;;;;11.63;5.90;;;;;;;22.43;nan;95534.88;5035652;28;20049;-78
2022/09/24 10:22:26;;;;;;;9.90;4.60;;;;;;;23.39;nan;95589.06;5037928;28;20120;-78
2022/09/24 10:24:54;;;;;;;7.40;4.43;;;;;;;23.70;nan;95534.25;5025915;28;20115;-78
2022/09/24 10:27:34;;;;;;;10.85;4.90;;;;;;;24.38;nan;95574.63;5028285;28;20063;-78
2022/09/24 10:32:47;;;;;;;11.68;4.75;;;;;;;24.89;nan;95583.53;5037635;28;20059;-78
2022/09/24 10:35:24;;;;;;;12.40;4.85;;;;;;;24.86;nan;95551.69;5034020;28;20511;-78
2022/09/24 10:37:55;;;;;;;7.97;4.07;;;;;;;25.12;nan;95575.50;5026970;28;20041;-78
2022/09/24 10:40:30;;;;;;;8.68;4.55;;;;;;;24.54;nan;95592.47;5033925;28;20043;-78
2022/09/24 10:42:57;;;;;;;4.45;3.22;;;;;;;24.57;nan;95577.38;5036043;28;20041;-78
2022/09/24 10:45:45;;;;;;;7.53;3.47;;;;;;;24.42;nan;95573.56;5037495;28;20029;-78
2022/09/24 10:48:22;;;;;;;6.63;3.78;;;;;;;23.90;nan;95478.22;5036030;28;20041;-78
2022/09/24 10:51:19;;;;;;;6.38;2.95;;;;;;;24.63;nan;95576.00;5027143;28;20060;-78
2022/09/24 10:53:53;;;;;;;4.10;2.88;;;;;;;23.61;nan;95579.63;5028643;28;20424;-78
2022/09/24 10:56:37;;;;;;;4.05;2.45;;;;;;;23.46;nan;95543.25;5035180;28;20037;-78
2022/09/24 10:59:27;;;;;;;3.63;2.50;;;;;;;23.35;nan;95525.94;5035501;28;20147;-78
2022/09/24 11:02:17;;;;;;;10.50;2.50;;;;;;;21.89;nan;95582.91;5031743;28;20043;-78
2022/09/24 11:04:58;;;;;;;5.57;2.63;;;;;;;21.98;nan;95529.59;5027293;28;20523;-78
2022/09/24 11:07:59;;;;;;;4.38;2.10;;;;;;;22.48;nan;95574.41;5036043;28;20279;-79
2022/09/24 11:11:03;;;;;;;2.28;1.98;;;;;;;21.64;nan;95584.75;5020781;28;20065;-78
2022/09/24 11:14:13;;;;;;;5.05;2.10;;;;;;;21.42;nan;95569.75;5036940;28;20037;-78
2022/09/24 11:16:50;;;;;;;6.28;2.40;;;;;;;21.43;nan;95567.84;5005312;28;20717;-78
2022/09/24 11:19:33;;;;;;;3.58;2.30;;;;;;;21.93;nan;95552.19;5033894;28;20132;-78
2022/09/24 11:22:09;;;;;;;8.45;2.83;;;;;;;21.68;nan;95477.69;5023560;28;20039;-78
2022/09/24 11:24:47;;;;;;;8.50;3.00;;;;;;;21.68;nan;95520.88;5025661;28;20560;-78
2022/09/24 11:27:32;;;;;;;4.13;2.55;;;;;;;21.00;nan;95469.22;5034992;28;20112;-78
2022/09/24 11:30:06;;;;;;;4.90;2.53;;;;;;;22.13;nan;95539.72;5028270;28;20264;-78
2022/09/24 11:32:53;;;;;;;5.18;2.22;;;;;;;22.17;nan;95539.84;5029116;28;20029;-78
2022/09/24 11:35:40;;;;;;;6.47;2.72;;;;;;;21.88;nan;95535.44;5025440;28;20068;-77
2022/09/24 11:38:16;;;;;;;3.95;2.33;;;;;;;21.85;nan;95546.88;5027294;28;20028;-77
2022/09/24 11:41:08;;;;;;;4.43;2.40;;;;;;;21.62;nan;95497.94;5033543;28;20475;-78
2022/09/24 11:43:57;;;;;;;4.18;2.25;;;;;;;21.28;nan;95457.88;5024840;28;20048;-78
2022/09/24 11:46:37;;;;;;;4.30;2.35;;;;;;;21.01;nan;95478.88;5035887;28;20025;-78
2022/09/24 11:49:09;;;;;;;3.50;2.17;;;;;;;21.18;nan;95524.59;5027838;28;20044;-78
2022/09/24 11:51:52;;;;;;;7.97;2.28;;;;;;;21.49;nan;95536.81;5034788;28;20040;-78
2022/09/24 11:54:22;;;;;;;4.65;2.03;;;;;;;21.14;nan;95520.94;5025522;28;20149;-78
2022/09/24 11:56:53;;;;;;;4.53;2.13;;;;;;;21.31;nan;95527.31;5027510;28;20044;-78
2022/09/24 11:59:33;;;;;;;6.43;2.27;;;;;;;21.59;nan;95500.53;5028107;28;20068;-78
2022/09/24 12:02:05;;;;;;;3.20;2.10;;;;;;;21.11;nan;95451.50;5031426;28;20124;-78
2022/09/24 12:05:05;;;;;;;3.05;1.95;;;;;;;21.35;nan;95468.91;5027629;28;20551;-78
2022/09/24 12:07:46;;;;;;;3.95;2.47;;;;;;;21.67;nan;95513.91;5026337;28;20041;-78
2022/09/24 12:10:45;;;;;;;8.55;2.35;;;;;;;21.73;nan;95485.59;5034512;28;20450;-78
2022/09/24 12:13:17;;;;;;;6.45;2.50;;;;;;;21.75;nan;95507.63;5020819;28;21058;-78
2022/09/24 12:16:09;;;;;;;7.45;2.25;;;;;;;21.81;nan;95522.50;5027378;28;20118;-78
2022/09/24 12:18:44;;;;;;;6.45;2.30;;;;;;;22.02;nan;95517.00;5032818;28;20127;-78